createdAt,value
2022-07-26T00:02:05.149Z,45.98
2022-07-26T00:04:40.378Z,46.26
2022-07-26T00:07:09.106Z,46.29
2022-07-26T00:09:37.780Z,46.43
2022-07-26T00:12:07.025Z,46.48
2022-07-26T00:14:37.602Z,46.57
2022-07-26T00:17:06.781Z,46.68
2022-07-26T00:19:35.979Z,46.71
2022-07-26T00:22:22.287Z,46.73
2022-07-26T00:24:53.091Z,46.95
2022-07-26T00:27:22.212Z,46.97
2022-07-26T00:29:53.160Z,47.06
2022-07-26T00:32:20.760Z,47.29
2022-07-26T00:34:49.128Z,47.24
2022-07-26T00:37:20.582Z,47.24
2022-07-26T00:39:52.019Z,47.34
2022-07-26T00:42:22.219Z,47.43
2022-07-26T00:44:50.840Z,47.51
2022-07-26T00:47:19.945Z,47.62
2022-07-26T00:49:49.287Z,47.68
2022-07-26T00:52:17.317Z,47.75
2022-07-26T00:54:49.447Z,47.83
2022-07-26T00:57:19.473Z,47.88
2022-07-26T00:59:48.658Z,48.03
2022-07-26T01:02:18.481Z,48.09
2022-07-26T01:04:48.222Z,48.17
2022-07-26T01:07:18.347Z,48.21
2022-07-26T01:09:47.903Z,48.38
2022-07-26T01:12:18.802Z,48.31
2022-07-26T01:14:47.451Z,48.33
2022-07-26T01:17:16.607Z,48.55
2022-07-26T01:19:46.147Z,48.55
2022-07-26T01:22:17.387Z,48.49
2022-07-26T01:24:46.817Z,48.56
2022-07-26T01:27:14.676Z,48.65
2022-07-26T01:29:44.776Z,48.76
2022-07-26T01:32:15.117Z,48.81
2022-07-26T01:34:46.830Z,48.84
2022-07-26T01:37:16.133Z,48.94
2022-07-26T01:39:46.114Z,48.98
2022-07-26T01:42:17.387Z,49.14
2022-07-26T01:44:49.540Z,49.10
2022-07-26T01:47:19.152Z,49.13
2022-07-26T01:49:49.811Z,49.23
2022-07-26T01:52:18.505Z,49.44
2022-07-26T01:54:46.627Z,49.46
2022-07-26T01:57:16.808Z,49.53
2022-07-26T01:59:46.162Z,49.50
2022-07-26T02:02:13.906Z,49.60
2022-07-26T02:04:59.235Z,49.80
2022-07-26T02:07:32.788Z,49.71
2022-07-26T02:10:01.585Z,49.82
2022-07-26T02:12:32.795Z,50.04
2022-07-26T02:15:02.487Z,50.05
2022-07-26T02:17:32.485Z,50.20
2022-07-26T02:20:00.666Z,50.06
2022-07-26T02:22:30.563Z,50.17
2022-07-26T02:25:05.015Z,50.19
2022-07-26T02:27:37.612Z,50.25
2022-07-26T02:30:06.423Z,50.35
2022-07-26T02:32:35.504Z,50.46
2022-07-26T02:35:05.227Z,50.46
2022-07-26T02:37:37.564Z,50.50
2022-07-26T02:40:18.846Z,50.53
2022-07-26T02:42:47.011Z,50.53
2022-07-26T02:45:16.214Z,50.56
2022-07-26T02:47:51.905Z,50.56
2022-07-26T02:50:23.105Z,50.70
2022-07-26T02:52:53.661Z,50.70
2022-07-26T02:55:24.587Z,50.71
2022-07-26T02:57:55.040Z,50.78
2022-07-26T03:00:28.936Z,50.77
2022-07-26T03:02:57.706Z,50.88
2022-07-26T03:05:27.158Z,50.91
2022-07-26T03:07:57.019Z,50.90
2022-07-26T03:10:36.255Z,51.04
2022-07-26T03:13:05.910Z,51.12
2022-07-26T03:15:37.155Z,51.15
2022-07-26T03:18:07.431Z,51.10
2022-07-26T03:20:36.475Z,51.35
2022-07-26T03:23:05.711Z,51.28
2022-07-26T03:25:34.052Z,51.25
2022-07-26T03:28:07.667Z,51.40
2022-07-26T03:30:36.041Z,51.31
2022-07-26T03:33:07.000Z,51.43
2022-07-26T03:35:37.064Z,51.44
2022-07-26T03:38:07.357Z,51.48
2022-07-26T03:40:35.719Z,51.48
2022-07-26T03:43:04.252Z,51.53
2022-07-26T03:45:34.056Z,51.54
2022-07-26T03:48:04.035Z,51.52
2022-07-26T03:50:34.203Z,51.57
2022-07-26T03:53:03.373Z,51.38
2022-07-26T03:55:51.698Z,51.53
2022-07-26T03:58:19.814Z,51.43
2022-07-26T04:00:51.170Z,51.46
2022-07-26T04:03:18.945Z,51.39
2022-07-26T04:05:49.248Z,51.55
2022-07-26T04:08:20.560Z,51.52
2022-07-26T04:10:52.492Z,51.62
2022-07-26T04:13:23.695Z,51.68
2022-07-26T04:15:56.793Z,51.64
2022-07-26T04:18:24.899Z,51.64
2022-07-26T04:20:53.386Z,51.64
2022-07-26T04:23:23.468Z,51.68
2022-07-26T04:25:51.755Z,51.68
2022-07-26T04:28:23.097Z,51.57
2022-07-26T04:30:51.698Z,51.65
2022-07-26T04:33:20.966Z,51.58
2022-07-26T04:35:51.608Z,51.71
2022-07-26T04:38:19.745Z,51.71
2022-07-26T04:40:51.328Z,51.70
2022-07-26T04:43:19.407Z,51.57
2022-07-26T04:45:50.391Z,51.68
2022-07-26T04:48:20.876Z,51.68
2022-07-26T04:50:50.168Z,51.68
2022-07-26T04:53:27.002Z,51.56
2022-07-26T04:55:59.889Z,51.59
2022-07-26T04:58:31.218Z,51.70
2022-07-26T05:01:16.498Z,51.54
2022-07-26T05:03:46.016Z,51.47
2022-07-26T05:06:14.931Z,51.57
2022-07-26T05:08:45.145Z,51.54
2022-07-26T05:11:13.169Z,51.58
2022-07-26T05:13:40.694Z,51.60
2022-07-26T05:16:11.569Z,51.65
2022-07-26T05:18:48.930Z,51.61
2022-07-26T05:21:18.427Z,51.61
2022-07-26T05:23:47.865Z,51.42
2022-07-26T05:26:16.259Z,51.38
2022-07-26T05:28:43.859Z,51.35
2022-07-26T05:31:11.571Z,51.34
2022-07-26T05:33:40.269Z,51.27
2022-07-26T05:36:10.978Z,51.25
2022-07-26T05:38:44.407Z,51.21
2022-07-26T05:41:12.377Z,51.14
2022-07-26T05:43:42.408Z,51.21
2022-07-26T05:46:11.913Z,51.09
2022-07-26T05:48:42.201Z,51.05
2022-07-26T05:51:11.176Z,51.14
2022-07-26T05:53:39.900Z,51.06
2022-07-26T05:56:08.831Z,51.20
2022-07-26T05:58:37.291Z,51.07
2022-07-26T06:01:05.385Z,51.07
2022-07-26T06:03:33.154Z,50.95
2022-07-26T06:06:02.725Z,51.16
2022-07-26T06:08:31.081Z,51.26
2022-07-26T06:10:59.796Z,51.37
2022-07-26T06:13:29.362Z,51.23
2022-07-26T06:16:00.245Z,51.12
2022-07-26T06:18:28.730Z,51.33
2022-07-26T06:20:56.709Z,51.25
2022-07-26T06:23:33.872Z,51.21
2022-07-26T06:26:04.097Z,51.28
2022-07-26T06:28:32.444Z,51.35
2022-07-26T06:31:00.291Z,51.37
2022-07-26T06:33:27.998Z,51.60
2022-07-26T06:35:55.642Z,51.62
2022-07-26T06:38:23.276Z,51.26
2022-07-26T06:40:50.784Z,51.33
2022-07-26T06:43:18.381Z,51.43
2022-07-26T06:45:46.442Z,51.26
2022-07-26T06:48:14.199Z,51.41
2022-07-26T06:50:42.773Z,51.36
2022-07-26T06:53:12.055Z,51.46
2022-07-26T06:55:41.384Z,51.33
2022-07-26T06:58:13.224Z,51.26
2022-07-26T07:00:42.410Z,51.27
2022-07-26T07:03:10.589Z,51.11
2022-07-26T07:05:49.723Z,50.97
2022-07-26T07:08:24.747Z,50.96
2022-07-26T07:10:53.633Z,50.59
2022-07-26T07:13:23.039Z,50.53
2022-07-26T07:15:51.948Z,50.53
2022-07-26T07:18:21.224Z,50.44
2022-07-26T07:20:49.839Z,50.52
2022-07-26T07:23:17.825Z,50.23
2022-07-26T07:25:47.327Z,50.19
2022-07-26T07:28:19.186Z,49.92
2022-07-26T07:30:49.443Z,49.78
2022-07-26T07:33:22.657Z,49.77
2022-07-26T07:35:53.074Z,49.50
2022-07-26T07:38:23.733Z,49.58
2022-07-26T07:40:55.036Z,49.22
2022-07-26T07:43:24.602Z,48.76
2022-07-26T07:45:56.998Z,48.83
2022-07-26T07:48:25.595Z,48.94
2022-07-26T07:50:53.666Z,48.67
2022-07-26T07:53:22.976Z,48.85
2022-07-26T07:55:51.177Z,48.65
2022-07-26T07:58:28.477Z,48.52
2022-07-26T08:01:01.290Z,48.61
2022-07-26T08:03:38.699Z,48.75
2022-07-26T08:06:13.895Z,48.78
2022-07-26T08:08:42.049Z,48.78
2022-07-26T08:11:45.816Z,48.88
2022-07-26T08:14:33.565Z,49.07
2022-07-26T08:17:11.286Z,49.18
2022-07-26T08:19:41.927Z,49.08
2022-07-26T08:22:12.347Z,48.75
2022-07-26T08:24:41.144Z,48.95
2022-07-26T08:27:09.106Z,48.82
2022-07-26T08:29:36.856Z,48.87
2022-07-26T08:32:16.095Z,48.84
2022-07-26T08:34:53.761Z,48.75
2022-07-26T08:37:45.151Z,48.86
2022-07-26T08:43:04.110Z,48.71
2022-07-26T08:45:32.333Z,48.71
2022-07-26T08:48:18.358Z,48.78
2022-07-26T08:50:48.679Z,48.56
2022-07-26T08:53:17.256Z,48.40
2022-07-26T08:58:41.106Z,48.39
2022-07-26T09:01:15.127Z,48.31
2022-07-26T09:03:45.441Z,48.18
2022-07-26T09:06:26.327Z,48.16
2022-07-26T09:09:12.881Z,48.16
2022-07-26T09:11:41.248Z,48.10
2022-07-26T09:14:11.577Z,48.23
2022-07-26T09:16:40.208Z,48.13
2022-07-26T09:19:17.396Z,47.90
2022-07-26T09:21:46.332Z,47.87
2022-07-26T09:24:45.611Z,48.16
2022-07-26T09:27:19.478Z,48.48
2022-07-26T09:29:54.323Z,48.11
2022-07-26T09:32:25.405Z,48.46
2022-07-26T09:34:58.897Z,48.13
2022-07-26T09:37:44.080Z,48.03
2022-07-26T09:40:14.840Z,48.10
2022-07-26T09:43:02.223Z,48.14
2022-07-26T09:45:33.634Z,48.41
2022-07-26T09:48:04.538Z,48.42
2022-07-26T09:50:37.183Z,48.69
2022-07-26T09:53:10.184Z,48.83
2022-07-26T09:55:45.282Z,48.99
2022-07-26T09:58:18.222Z,49.12
2022-07-26T10:00:50.792Z,49.41
2022-07-26T10:03:20.450Z,49.63
2022-07-26T10:05:51.949Z,49.57
2022-07-26T10:08:45.703Z,49.88
2022-07-26T10:11:16.287Z,49.93
2022-07-26T10:13:44.284Z,49.79
2022-07-26T10:16:33.274Z,50.09
2022-07-26T10:19:04.722Z,50.07
2022-07-26T10:22:20.347Z,50.37
2022-07-26T10:24:58.420Z,50.28
2022-07-26T10:27:41.922Z,50.50
2022-07-26T10:30:35.649Z,50.73
2022-07-26T10:33:14.003Z,50.78
2022-07-26T10:35:43.197Z,50.75
2022-07-26T10:38:22.183Z,50.97
2022-07-26T10:41:00.101Z,51.05
2022-07-26T10:43:40.690Z,50.92
2022-07-26T10:46:30.738Z,51.08
2022-07-26T10:49:10.279Z,51.11
2022-07-26T10:51:57.980Z,50.78
2022-07-26T10:54:31.123Z,50.50
2022-07-26T10:57:06.381Z,50.48
2022-07-26T10:59:54.934Z,50.29
2022-07-26T11:02:28.539Z,50.34
2022-07-26T11:05:04.393Z,50.10
2022-07-26T11:07:32.767Z,50.42
2022-07-26T11:10:01.484Z,50.39
2022-07-26T11:12:32.743Z,50.44
2022-07-26T11:15:16.898Z,50.56
2022-07-26T11:17:44.625Z,50.49
2022-07-26T11:20:36.304Z,50.73
2022-07-26T11:23:05.218Z,50.61
2022-07-26T11:25:33.592Z,50.39
2022-07-26T11:28:07.395Z,50.28
2022-07-26T11:30:57.324Z,50.39
2022-07-26T11:33:37.694Z,50.37
2022-07-26T11:36:07.756Z,50.40
2022-07-26T11:39:06.320Z,50.24
2022-07-26T11:41:35.189Z,49.98
2022-07-26T11:44:06.504Z,50.17
2022-07-26T11:46:40.750Z,50.36
2022-07-26T11:49:16.250Z,50.46
2022-07-26T11:51:56.662Z,50.51
2022-07-26T11:54:29.666Z,50.36
2022-07-26T11:57:00.814Z,50.49
2022-07-26T11:59:33.825Z,50.67
2022-07-26T12:02:05.207Z,50.56
2022-07-26T12:04:42.456Z,50.73
2022-07-26T12:07:13.052Z,50.46
2022-07-26T12:09:48.034Z,50.70
2022-07-26T12:12:27.124Z,50.83
2022-07-26T12:15:05.554Z,50.99
2022-07-26T12:17:35.782Z,50.89
2022-07-26T12:20:17.447Z,51.01
2022-07-26T12:23:04.869Z,51.06
2022-07-26T12:25:33.718Z,50.79
2022-07-26T12:28:06.594Z,50.97
2022-07-26T12:30:38.240Z,51.27
2022-07-26T12:33:08.735Z,51.27
2022-07-26T12:35:38.749Z,51.33
2022-07-26T12:38:08.821Z,51.26
2022-07-26T12:40:41.662Z,51.28
2022-07-26T12:43:12.013Z,51.18
2022-07-26T12:45:43.429Z,51.41
2022-07-26T12:48:12.459Z,51.44
2022-07-26T12:50:41.152Z,51.44
2022-07-26T12:53:12.746Z,51.32
2022-07-26T12:55:42.609Z,51.30
2022-07-26T12:58:13.876Z,51.23
2022-07-26T13:00:42.031Z,51.20
2022-07-26T13:03:13.101Z,51.55
2022-07-26T13:05:42.344Z,51.50
2022-07-26T13:08:13.416Z,51.46
2022-07-26T13:10:43.338Z,51.56
2022-07-26T13:13:14.235Z,51.55
2022-07-26T13:15:44.682Z,51.43
2022-07-26T13:18:16.037Z,51.65
2022-07-26T13:20:45.748Z,51.72
2022-07-26T13:23:15.973Z,51.89
2022-07-26T13:25:53.163Z,51.85
2022-07-26T13:28:23.580Z,51.96
2022-07-26T13:30:52.933Z,51.96
2022-07-26T13:33:29.007Z,51.92
2022-07-26T13:36:03.264Z,52.06
2022-07-26T13:38:36.401Z,52.01
2022-07-26T13:41:06.044Z,52.06
2022-07-26T13:43:35.206Z,52.11
2022-07-26T13:46:13.804Z,52.27
2022-07-26T13:48:59.941Z,52.44
2022-07-26T13:51:57.753Z,52.25
2022-07-26T13:54:34.043Z,52.37
2022-07-26T13:57:07.489Z,52.18
2022-07-26T13:59:35.338Z,52.28
2022-07-26T14:02:04.620Z,52.12
2022-07-26T14:04:32.646Z,52.24
2022-07-26T14:07:00.880Z,52.24
2022-07-26T14:09:35.646Z,52.45
2022-07-26T14:12:04.183Z,52.32
2022-07-26T14:14:35.002Z,52.37
2022-07-26T14:17:06.887Z,52.48
2022-07-26T14:19:36.649Z,52.30
2022-07-26T14:22:15.404Z,52.29
2022-07-26T14:25:02.607Z,52.56
2022-07-26T14:30:28.611Z,52.37
2022-07-26T14:33:09.532Z,52.42
2022-07-26T14:35:52.059Z,52.34
2022-07-26T14:38:31.815Z,52.12
2022-07-26T14:41:07.914Z,52.31
2022-07-26T14:43:37.184Z,52.37
2022-07-26T14:46:10.502Z,52.47
2022-07-26T14:49:32.653Z,52.35
2022-07-26T14:52:02.449Z,52.24
2022-07-26T14:54:33.491Z,52.46
2022-07-26T14:57:06.533Z,52.57
2022-07-26T14:59:43.071Z,52.36
2022-07-26T15:02:14.320Z,52.35
2022-07-26T15:04:49.535Z,52.25
2022-07-26T15:07:27.114Z,52.22
2022-07-26T15:09:59.803Z,52.21
2022-07-26T15:12:34.016Z,52.22
2022-07-26T15:15:07.393Z,52.19
2022-07-26T15:17:44.756Z,52.18
2022-07-26T15:20:27.240Z,52.20
2022-07-26T15:22:57.441Z,52.16
2022-07-26T15:25:27.399Z,52.08
2022-07-26T15:28:07.829Z,51.87
2022-07-26T15:30:41.772Z,51.87
2022-07-26T15:33:18.044Z,51.87
2022-07-26T15:35:47.360Z,51.92
2022-07-26T15:38:23.803Z,52.21
2022-07-26T15:40:53.564Z,52.17
2022-07-26T15:43:44.141Z,52.18
2022-07-26T15:46:14.318Z,51.95
2022-07-26T15:49:08.062Z,51.86
2022-07-26T15:51:37.861Z,52.05
2022-07-26T15:54:10.042Z,52.07
2022-07-26T15:56:41.582Z,52.26
2022-07-26T15:59:16.840Z,51.97
2022-07-26T16:01:45.214Z,52.10
2022-07-26T16:04:17.604Z,52.10
2022-07-26T16:06:47.761Z,51.98
2022-07-26T16:09:32.671Z,52.09
2022-07-26T16:12:41.309Z,52.02
2022-07-26T16:15:46.415Z,51.81
2022-07-26T16:19:08.086Z,52.07
2022-07-26T16:22:06.145Z,51.99
2022-07-26T16:24:56.211Z,51.93
2022-07-26T16:28:05.642Z,51.82
2022-07-26T16:33:36.613Z,51.98
2022-07-26T16:36:17.565Z,51.99
2022-07-26T16:38:46.968Z,51.86
2022-07-26T16:41:15.986Z,51.89
2022-07-26T16:43:45.509Z,51.88
2022-07-26T16:46:14.881Z,51.98
2022-07-26T16:48:45.863Z,51.95
2022-07-26T16:51:16.723Z,52.06
2022-07-26T16:53:48.204Z,51.91
2022-07-26T16:56:21.640Z,51.71
2022-07-26T16:58:51.042Z,51.89
2022-07-26T17:01:20.728Z,51.89
2022-07-26T17:03:51.032Z,51.68
2022-07-26T17:06:21.137Z,51.84
2022-07-26T17:08:53.111Z,51.75
2022-07-26T17:11:25.649Z,51.72
2022-07-26T17:13:56.799Z,51.74
2022-07-26T17:16:28.266Z,51.92
2022-07-26T17:18:59.452Z,51.95
2022-07-26T17:21:28.543Z,51.81
2022-07-26T17:24:00.518Z,51.92
2022-07-26T17:26:47.553Z,52.00
2022-07-26T17:29:21.824Z,51.97
2022-07-26T17:31:50.995Z,51.98
2022-07-26T17:34:20.732Z,52.02
2022-07-26T17:37:42.854Z,51.99
2022-07-26T17:40:13.177Z,52.08
2022-07-26T17:42:42.153Z,52.09
2022-07-26T17:45:13.266Z,52.18
2022-07-26T17:47:43.269Z,52.09
2022-07-26T17:50:40.335Z,52.11
2022-07-26T17:53:09.162Z,52.04
2022-07-26T17:55:38.032Z,52.10
2022-07-26T17:58:09.352Z,52.16
2022-07-26T18:00:39.700Z,52.28
2022-07-26T18:03:09.838Z,52.21
2022-07-26T18:05:41.384Z,52.44
2022-07-26T18:08:13.123Z,52.43
2022-07-26T18:10:50.594Z,52.48
2022-07-26T18:13:22.301Z,52.61
2022-07-26T18:15:53.922Z,52.64
2022-07-26T18:18:24.995Z,52.69
2022-07-26T18:20:59.671Z,52.85
2022-07-26T18:23:34.002Z,53.07
2022-07-26T18:29:42.009Z,53.23
2022-07-26T18:32:30.310Z,53.29
2022-07-26T18:35:41.724Z,53.00
2022-07-26T18:39:01.021Z,53.03
2022-07-26T18:41:56.850Z,53.25
2022-07-26T18:44:46.628Z,53.21
2022-07-26T18:47:26.268Z,53.46
2022-07-26T18:49:58.455Z,53.46
2022-07-26T18:52:31.927Z,53.57
2022-07-26T18:55:10.987Z,53.70
2022-07-26T18:57:44.206Z,53.76
2022-07-26T19:00:19.625Z,54.00
2022-07-26T19:02:48.377Z,54.31
2022-07-26T19:05:22.960Z,54.39
2022-07-26T19:07:53.746Z,54.56
2022-07-26T19:10:24.687Z,54.58
2022-07-26T19:12:54.367Z,54.66
2022-07-26T19:15:24.701Z,54.71
2022-07-26T19:17:59.256Z,54.58
2022-07-26T19:20:33.914Z,54.52
2022-07-26T19:23:04.552Z,54.63
2022-07-26T19:25:34.556Z,54.53
2022-07-26T19:28:06.219Z,54.58
2022-07-26T19:31:05.662Z,54.40
2022-07-26T19:33:33.665Z,54.46
2022-07-26T19:36:06.170Z,54.41
2022-07-26T19:38:36.661Z,54.47
2022-07-26T19:41:08.299Z,54.55
2022-07-26T19:44:22.879Z,54.60
2022-07-26T19:47:15.740Z,54.70
2022-07-26T19:50:03.836Z,54.73
2022-07-26T19:53:16.182Z,55.02
2022-07-26T19:55:44.340Z,55.05
2022-07-26T19:59:04.442Z,55.12
2022-07-26T20:02:25.103Z,55.32
2022-07-26T20:04:55.629Z,55.51
2022-07-26T20:08:18.846Z,55.51
2022-07-26T20:11:22.429Z,55.71
2022-07-26T20:18:22.540Z,55.72
2022-07-26T20:21:19.195Z,55.85
2022-07-26T20:24:29.193Z,55.80
2022-07-26T20:42:38.415Z,56.08
2022-07-26T20:49:12.335Z,56.33
2022-07-26T21:06:03.467Z,56.51
2022-07-26T21:12:52.373Z,56.61
2022-07-26T21:23:17.344Z,56.90
2022-07-26T21:44:43.780Z,57.09
2022-07-26T21:47:18.246Z,57.03
2022-07-26T21:50:42.568Z,57.06
2022-07-26T21:53:32.099Z,57.05
2022-07-26T21:56:02.226Z,57.21
2022-07-26T21:58:36.798Z,57.10
2022-07-26T22:05:33.173Z,57.02
2022-07-26T22:12:08.022Z,57.07
2022-07-26T22:15:26.990Z,57.15
2022-07-26T22:28:19.296Z,57.44
2022-07-26T22:38:48.184Z,57.21
2022-07-26T22:45:53.428Z,57.12
2022-07-26T23:01:25.530Z,56.84
2022-07-26T23:03:57.016Z,56.84
2022-07-26T23:06:32.025Z,56.77
2022-07-26T23:09:14.925Z,56.79
2022-07-26T23:12:12.483Z,56.64
2022-07-26T23:14:42.596Z,56.60
2022-07-26T23:17:11.637Z,56.53
2022-07-26T23:23:29.089Z,56.67
2022-07-26T23:26:01.870Z,56.63
2022-07-26T23:28:36.693Z,56.68
2022-07-26T23:31:08.994Z,56.72
2022-07-26T23:33:52.408Z,56.48
2022-07-26T23:36:29.473Z,56.53
2022-07-26T23:39:00.971Z,56.65
2022-07-26T23:41:30.987Z,56.59
2022-07-26T23:44:00.295Z,56.45
2022-07-26T23:46:30.184Z,56.40
2022-07-26T23:48:59.951Z,56.47
2022-07-26T23:51:54.102Z,56.41
2022-07-26T23:57:57.304Z,56.40
